createdAt,value
2023-01-02T00:00:37.805Z,63.02
2023-01-02T00:05:39.482Z,63.08
2023-01-02T00:10:41.108Z,63.16
2023-01-02T00:15:42.792Z,61.19
2023-01-02T00:20:44.494Z,59.75
2023-01-02T00:25:48.574Z,59.45
2023-01-02T00:30:50.207Z,58.97
2023-01-02T00:35:51.814Z,58.34
2023-01-02T00:40:53.422Z,58.26
2023-01-02T00:45:55.989Z,58.57
2023-01-02T00:50:57.620Z,60.22
2023-01-02T00:55:59.249Z,59.94
2023-01-02T01:01:00.955Z,59.63
2023-01-02T01:06:09.887Z,60.99
2023-01-02T01:11:15.488Z,60.94
2023-01-02T01:16:19.255Z,57.40
2023-01-02T01:21:22.342Z,57.18
2023-01-02T01:26:24.293Z,56.32
2023-01-02T01:31:25.943Z,56.00
2023-01-02T01:36:27.590Z,54.99
2023-01-02T01:41:29.166Z,55.01
2023-01-02T01:46:39.372Z,55.34
2023-01-02T01:51:50.582Z,55.46
2023-01-02T01:56:58.969Z,55.91
2023-01-02T02:02:00.984Z,56.64
2023-01-02T02:07:03.072Z,56.23
2023-01-02T02:12:06.808Z,55.99
2023-01-02T02:17:34.739Z,55.09
2023-01-02T02:23:04.133Z,54.68
2023-01-02T02:28:36.579Z,54.47
2023-01-02T02:33:49.403Z,54.83
2023-01-02T02:38:58.931Z,54.79
2023-01-02T02:44:03.262Z,56.24
2023-01-02T02:49:13.957Z,57.43
2023-01-02T02:54:22.927Z,56.77
2023-01-02T02:59:24.600Z,55.73
2023-01-02T03:04:26.272Z,55.92
2023-01-02T03:10:21.707Z,56.18
2023-01-02T03:15:28.792Z,56.43
2023-01-02T03:20:39.159Z,55.02
2023-01-02T03:25:42.938Z,55.40
2023-01-02T03:30:47.640Z,54.34
2023-01-02T03:35:58.021Z,54.68
2023-01-02T03:41:09.808Z,55.35
2023-01-02T03:46:20.223Z,53.95
2023-01-02T03:51:22.051Z,53.46
2023-01-02T03:56:45.407Z,52.92
2023-01-02T04:01:51.285Z,52.67
2023-01-02T04:06:59.819Z,52.37
2023-01-02T04:12:11.840Z,52.18
2023-01-02T04:17:16.384Z,52.86
2023-01-02T04:22:24.494Z,52.02
2023-01-02T04:27:33.344Z,52.18
2023-01-02T04:32:41.395Z,52.48
2023-01-02T04:37:44.061Z,52.86
2023-01-02T04:42:45.773Z,53.45
2023-01-02T04:47:48.902Z,53.97
2023-01-02T04:52:50.503Z,54.15
2023-01-02T04:57:52.114Z,54.15
2023-01-02T05:02:53.807Z,54.39
2023-01-02T05:07:55.520Z,54.28
2023-01-02T05:13:00.181Z,53.96
2023-01-02T05:18:01.782Z,54.25
2023-01-02T05:23:21.655Z,54.67
2023-01-02T05:28:23.297Z,54.77
2023-01-02T05:33:24.906Z,55.13
2023-01-02T05:38:26.519Z,55.23
2023-01-02T05:43:31.144Z,55.96
2023-01-02T05:48:32.766Z,57.13
2023-01-02T05:53:35.102Z,57.50
2023-01-02T05:58:39.191Z,57.98
2023-01-02T06:03:45.031Z,57.37
2023-01-02T06:08:46.665Z,57.12
2023-01-02T06:13:48.406Z,57.45
2023-01-02T06:18:50.730Z,56.59
2023-01-02T06:23:57.126Z,56.80
2023-01-02T06:28:58.892Z,57.12
2023-01-02T06:34:02.315Z,56.89
2023-01-02T06:39:04.278Z,57.13
2023-01-02T06:44:05.959Z,57.27
2023-01-02T06:49:07.599Z,57.33
2023-01-02T06:54:09.206Z,57.10
2023-01-02T06:59:10.891Z,57.36
2023-01-02T07:04:16.358Z,58.08
2023-01-02T07:09:17.995Z,57.80
2023-01-02T07:14:19.759Z,57.82
2023-01-02T07:19:21.432Z,58.73
2023-01-02T07:24:23.029Z,59.71
2023-01-02T07:29:24.658Z,59.92
2023-01-02T07:34:26.315Z,60.49
2023-01-02T07:39:27.987Z,64.06
2023-01-02T07:44:29.646Z,66.76
2023-01-02T07:49:31.381Z,67.91
2023-01-02T07:54:33.006Z,68.51
2023-01-02T07:59:34.627Z,68.95
2023-01-02T08:04:36.603Z,70.19
2023-01-02T08:09:38.241Z,70.06
2023-01-02T08:14:39.853Z,70.76
2023-01-02T08:19:41.461Z,71.38
2023-01-02T08:24:43.057Z,71.76
2023-01-02T08:29:45.751Z,72.67
2023-01-02T08:34:47.449Z,72.26
2023-01-02T08:39:49.064Z,74.29
2023-01-02T08:44:50.898Z,74.87
2023-01-02T08:49:52.487Z,73.84
2023-01-02T08:54:54.248Z,73.55
2023-01-02T08:59:55.987Z,73.75
2023-01-02T09:04:59.025Z,74.53
2023-01-02T09:10:00.752Z,74.54
2023-01-02T09:15:02.917Z,74.99
2023-01-02T09:20:05.304Z,74.27
2023-01-02T09:25:07.525Z,74.31
2023-01-02T09:30:09.470Z,73.96
2023-01-02T09:35:11.109Z,73.73
2023-01-02T09:40:14.570Z,72.77
2023-01-02T09:45:16.545Z,72.99
2023-01-02T09:50:29.652Z,72.92
2023-01-02T09:56:05.457Z,71.21
2023-01-02T10:01:18.821Z,70.31
2023-01-02T10:06:25.343Z,71.65
2023-01-02T10:11:53.472Z,72.05
2023-01-02T10:16:58.683Z,71.82
2023-01-02T10:22:01.909Z,71.90
2023-01-02T10:27:09.043Z,71.66
2023-01-02T10:32:17.488Z,70.94
2023-01-02T10:37:19.376Z,70.56
2023-01-02T10:42:22.124Z,70.73
2023-01-02T10:47:39.713Z,70.65
2023-01-02T10:53:04.258Z,71.65
2023-01-02T10:58:35.484Z,71.16
2023-01-02T11:03:37.190Z,72.45
2023-01-02T11:08:40.572Z,71.65
2023-01-02T11:13:51.949Z,72.06
2023-01-02T11:18:58.531Z,71.24
2023-01-02T11:24:03.137Z,70.62
2023-01-02T11:29:13.203Z,71.33
2023-01-02T11:34:23.834Z,71.61
2023-01-02T11:39:25.532Z,71.03
2023-01-02T11:44:49.154Z,71.43
2023-01-02T11:49:50.984Z,70.31
2023-01-02T11:54:55.286Z,71.05
2023-01-02T12:00:01.382Z,68.95
2023-01-02T12:05:11.123Z,64.96
2023-01-02T12:10:41.435Z,62.32
2023-01-02T12:16:11.546Z,61.84
2023-01-02T12:21:35.401Z,57.58
2023-01-02T12:26:52.075Z,58.27
2023-01-02T12:32:35.631Z,56.88
2023-01-02T12:37:50.398Z,57.84
2023-01-02T12:43:16.100Z,57.65
2023-01-02T12:48:48.089Z,54.29
2023-01-02T12:54:20.971Z,52.23
2023-01-02T12:59:41.279Z,52.39
2023-01-02T13:04:49.895Z,51.88
2023-01-02T13:09:53.571Z,52.44
2023-01-02T13:15:08.617Z,52.51
2023-01-02T13:20:34.085Z,52.76
2023-01-02T13:25:42.085Z,52.83
2023-01-02T13:31:00.927Z,52.82
2023-01-02T13:36:38.131Z,52.06
2023-01-02T13:42:09.735Z,52.85
2023-01-02T13:47:25.562Z,53.26
2023-01-02T13:52:31.893Z,53.99
2023-01-02T13:57:33.679Z,53.36
2023-01-02T14:02:35.456Z,52.55
2023-01-02T14:07:43.229Z,52.09
2023-01-02T14:12:57.545Z,51.77
2023-01-02T14:18:04.713Z,51.64
2023-01-02T14:23:08.900Z,51.53
2023-01-02T14:28:26.279Z,51.88
2023-01-02T14:33:34.770Z,52.65
2023-01-02T14:38:42.856Z,52.63
2023-01-02T14:43:47.153Z,53.08
2023-01-02T14:48:55.773Z,53.32
2023-01-02T14:54:08.233Z,53.72
2023-01-02T14:59:18.777Z,54.08
2023-01-02T15:04:26.284Z,53.95
2023-01-02T15:09:44.103Z,54.60
2023-01-02T15:14:46.055Z,54.97
2023-01-02T15:19:48.769Z,55.72
2023-01-02T15:24:53.393Z,55.99
2023-01-02T15:29:58.909Z,55.51
2023-01-02T15:35:23.587Z,56.46
2023-01-02T15:40:34.388Z,56.32
2023-01-02T15:45:37.777Z,56.98
2023-01-02T15:50:40.981Z,56.64
2023-01-02T15:55:42.731Z,56.59
2023-01-02T16:00:45.855Z,56.74
2023-01-02T16:05:55.033Z,57.15
2023-01-02T16:11:02.513Z,57.55
2023-01-02T16:16:15.574Z,57.67
2023-01-02T16:21:18.932Z,58.10
2023-01-02T16:26:27.639Z,58.10
2023-01-02T16:31:29.475Z,58.19
2023-01-02T16:36:31.181Z,58.61
2023-01-02T16:41:41.045Z,58.89
2023-01-02T16:46:47.372Z,59.47
2023-01-02T16:51:52.431Z,60.32
2023-01-02T16:56:54.061Z,59.19
2023-01-02T17:01:55.742Z,60.10
2023-01-02T17:06:57.472Z,60.05
2023-01-02T17:12:01.880Z,61.31
2023-01-02T17:17:03.571Z,60.89
2023-01-02T17:22:05.196Z,61.89
2023-01-02T17:27:06.801Z,62.62
2023-01-02T17:32:08.589Z,62.51
2023-01-02T17:37:10.332Z,63.30
2023-01-02T17:42:11.949Z,60.78
2023-01-02T17:47:57.008Z,61.57
2023-01-02T17:52:36.127Z,61.47
2023-01-02T17:57:39.524Z,61.33
2023-01-02T18:02:42.168Z,61.52
2023-01-02T18:07:43.864Z,61.34
2023-01-02T18:12:45.492Z,61.39
2023-01-02T18:17:48.332Z,61.59
2023-01-02T18:22:51.113Z,61.28
2023-01-02T18:28:12.061Z,62.00
2023-01-02T18:33:17.432Z,61.90
2023-01-02T18:38:28.809Z,62.29
2023-01-02T18:43:37.805Z,62.87
2023-01-02T18:48:40.150Z,63.41
2023-01-02T18:53:48.932Z,63.58
2023-01-02T18:59:08.700Z,63.37
2023-01-02T19:04:18.931Z,63.52
2023-01-02T19:09:35.369Z,63.93
2023-01-02T19:14:42.493Z,64.45
2023-01-02T19:19:44.734Z,64.54
2023-01-02T19:24:46.911Z,64.47
2023-01-02T19:29:49.060Z,64.43
2023-01-02T19:34:56.846Z,64.45
2023-01-02T19:40:02.162Z,64.97
2023-01-02T19:45:08.328Z,65.15
2023-01-02T19:50:17.312Z,65.52
2023-01-02T19:55:19.403Z,65.59
2023-01-02T20:00:21.293Z,65.92
2023-01-02T20:05:23.452Z,66.07
2023-01-02T20:10:25.785Z,66.38
2023-01-02T20:15:28.229Z,66.58
2023-01-02T20:20:30.120Z,66.80
2023-01-02T20:25:31.745Z,78.76
2023-01-02T20:30:33.444Z,93.01
2023-01-02T20:35:35.127Z,99.82
2023-01-02T20:40:36.766Z,100.00
2023-01-02T20:45:38.381Z,100.00
2023-01-02T20:50:40.024Z,100.00
2023-01-02T20:55:41.712Z,100.00
2023-01-02T21:00:43.438Z,100.00
2023-01-02T21:05:45.263Z,100.00
2023-01-02T21:10:47.227Z,100.00
2023-01-02T21:15:51.394Z,100.00
2023-01-02T21:20:58.551Z,100.00
2023-01-02T21:26:00.222Z,100.00
2023-01-02T21:31:02.386Z,100.00
2023-01-02T21:36:08.362Z,100.00
2023-01-02T21:41:29.649Z,100.00
2023-01-02T21:46:31.405Z,100.00
2023-01-02T21:51:33.304Z,100.00
2023-01-02T21:56:34.987Z,100.00
2023-01-02T22:01:36.755Z,100.00
2023-01-02T22:07:04.316Z,100.00
2023-01-02T22:12:02.121Z,100.00
2023-01-02T22:17:07.311Z,100.00
2023-01-02T22:22:09.623Z,100.00
2023-01-02T22:27:15.353Z,100.00
2023-01-02T22:32:17.780Z,100.00
2023-01-02T22:37:22.679Z,100.00
2023-01-02T22:43:03.819Z,100.00
2023-01-02T22:48:15.752Z,100.00
2023-01-02T22:53:30.223Z,100.00
2023-01-02T22:58:31.859Z,99.62
2023-01-02T23:03:38.825Z,97.52
2023-01-02T23:08:40.615Z,97.37
2023-01-02T23:13:43.341Z,96.38
2023-01-02T23:19:03.537Z,97.68
2023-01-02T23:24:06.684Z,97.31
2023-01-02T23:29:09.230Z,96.61
2023-01-02T23:34:12.767Z,96.37
2023-01-02T23:39:19.593Z,96.26
2023-01-02T23:44:22.563Z,95.57
2023-01-02T23:49:24.543Z,96.32
2023-01-02T23:54:26.285Z,97.30
2023-01-02T23:59:27.938Z,97.95
